Time;durP1;ratioP1;P1;durP2;ratioP2;P2;SDS_P1;SDS_P2;PMS_P1;PMS_P2;Temp;Humidity;BMP_temperature;BMP_pressure;BME280_temperature;BME280_humidity;BME280_pressure;Samples;Min_cycle;Max_cycle;Signal;HPM_P1;HPM_P2
2023/04/15 00:00:15;;;;;;;8.02;3.97;;;7.30;99.90;;;;;;5074264;28;20036;-82
2023/04/15 00:02:41;;;;;;;7.30;3.60;;;7.30;99.90;;;;;;5070160;28;20076;-81
2023/04/15 00:05:07;;;;;;;8.82;3.78;;;7.30;99.90;;;;;;5075597;28;20051;-81
2023/04/15 00:07:33;;;;;;;7.47;3.50;;;7.20;99.90;;;;;;5071298;28;20044;-82
2023/04/15 00:09:58;;;;;;;8.50;4.28;;;7.20;99.90;;;;;;5071247;28;20043;-82
2023/04/15 00:12:26;;;;;;;7.43;4.15;;;7.20;99.90;;;;;;5074542;28;20047;-82
2023/04/15 00:14:51;;;;;;;8.18;4.40;;;7.10;99.90;;;;;;5068502;28;20396;-82
2023/04/15 00:17:17;;;;;;;6.07;3.97;;;7.20;99.90;;;;;;5066617;28;20052;-83
2023/04/15 00:19:44;;;;;;;8.05;4.47;;;7.10;99.90;;;;;;5070705;28;20544;-83
2023/04/15 00:22:11;;;;;;;8.90;4.30;;;7.10;99.90;;;;;;5074620;28;20096;-81
2023/04/15 00:24:37;;;;;;;8.35;4.18;;;7.00;99.90;;;;;;5072192;28;20677;-83
2023/04/15 00:27:03;;;;;;;8.40;4.70;;;7.00;99.90;;;;;;5070645;28;20072;-83
2023/04/15 00:29:29;;;;;;;7.97;4.72;;;7.00;99.90;;;;;;5046296;28;20090;-82
2023/04/15 00:31:55;;;;;;;6.45;4.70;;;7.00;99.90;;;;;;5069573;28;20040;-82
2023/04/15 00:34:22;;;;;;;8.30;4.70;;;6.90;99.90;;;;;;5068929;28;20051;-83
2023/04/15 00:36:47;;;;;;;9.27;5.32;;;6.90;99.90;;;;;;5064669;28;20098;-83
2023/04/15 00:39:13;;;;;;;9.82;4.78;;;6.90;99.90;;;;;;5072945;28;20052;-82
2023/04/15 00:41:39;;;;;;;9.73;4.65;;;6.80;99.90;;;;;;5056188;28;20573;-82
2023/04/15 00:44:08;;;;;;;9.20;5.70;;;6.80;99.90;;;;;;5070959;28;20104;-83
2023/04/15 00:46:36;;;;;;;10.68;5.18;;;6.80;99.90;;;;;;5069139;28;20045;-83
2023/04/15 00:49:03;;;;;;;9.75;5.85;;;6.80;99.90;;;;;;5073383;28;20041;-83
2023/04/15 00:51:30;;;;;;;9.68;5.43;;;6.70;99.90;;;;;;5069091;28;20484;-82
2023/04/15 00:53:56;;;;;;;9.70;5.53;;;6.70;99.90;;;;;;5065837;28;20508;-82
2023/04/15 00:56:23;;;;;;;8.10;5.68;;;6.70;99.90;;;;;;5059905;28;20116;-83
2023/04/15 00:58:50;;;;;;;10.25;5.63;;;6.70;99.90;;;;;;5059470;28;20044;-82
2023/04/15 01:01:20;;;;;;;9.02;6.05;;;6.70;99.90;;;;;;5068724;28;20041;-82
2023/04/15 01:03:46;;;;;;;10.73;6.05;;;6.60;99.90;;;;;;5071716;28;20056;-82
2023/04/15 01:06:12;;;;;;;9.57;5.93;;;6.60;99.90;;;;;;5069160;28;20052;-82
2023/04/15 01:08:38;;;;;;;9.35;5.72;;;6.50;99.90;;;;;;5074353;28;20090;-81
2023/04/15 01:11:04;;;;;;;10.23;5.68;;;6.50;99.90;;;;;;5071905;28;20037;-82
2023/04/15 01:13:30;;;;;;;10.30;5.85;;;6.40;99.90;;;;;;5069577;28;20093;-82
2023/04/15 01:15:56;;;;;;;8.98;6.18;;;6.40;99.90;;;;;;5066644;28;20511;-83
2023/04/15 01:18:22;;;;;;;10.00;6.00;;;6.40;99.90;;;;;;5073576;28;20044;-82
2023/04/15 01:20:48;;;;;;;9.90;6.47;;;6.30;99.90;;;;;;5071257;28;20120;-83
2023/04/15 01:23:15;;;;;;;14.25;6.45;;;6.30;99.90;;;;;;5067473;28;20411;-82
2023/04/15 01:25:43;;;;;;;11.75;6.30;;;6.30;99.90;;;;;;5071225;28;20142;-82
2023/04/15 01:28:09;;;;;;;13.00;6.35;;;6.20;99.90;;;;;;5070240;28;20050;-83
2023/04/15 01:30:35;;;;;;;9.88;6.72;;;6.20;99.90;;;;;;5064522;28;20049;-82
2023/04/15 01:33:00;;;;;;;11.75;6.53;;;6.20;99.90;;;;;;5069845;28;20577;-82
2023/04/15 01:35:26;;;;;;;9.13;6.43;;;6.10;99.90;;;;;;5066991;28;20045;-82
2023/04/15 01:37:53;;;;;;;9.55;6.25;;;6.10;99.90;;;;;;5067842;28;20044;-82
2023/04/15 01:40:19;;;;;;;9.77;6.93;;;6.10;99.90;;;;;;5069065;28;20036;-82
2023/04/15 01:42:45;;;;;;;9.13;6.35;;;6.00;99.90;;;;;;5070752;28;20512;-82
2023/04/15 01:45:12;;;;;;;12.43;6.38;;;6.10;99.90;;;;;;5066098;28;20516;-82
2023/04/15 01:47:38;;;;;;;10.95;5.93;;;6.00;99.90;;;;;;5073418;28;20044;-83
2023/04/15 01:50:04;;;;;;;9.82;6.30;;;6.00;99.90;;;;;;5070687;28;20121;-82
2023/04/15 01:52:29;;;;;;;11.48;6.68;;;6.00;99.90;;;;;;5067157;28;20060;-83
2023/04/15 01:54:55;;;;;;;9.40;6.57;;;6.00;99.90;;;;;;5068157;28;20044;-83
2023/04/15 01:57:20;;;;;;;11.00;6.40;;;6.00;99.90;;;;;;5066175;28;20501;-84
2023/04/15 01:59:46;;;;;;;11.50;6.97;;;5.90;99.90;;;;;;5071996;28;20040;-85
2023/04/15 02:02:12;;;;;;;9.90;6.25;;;6.00;99.90;;;;;;5069484;28;20124;-82
2023/04/15 02:04:37;;;;;;;10.50;6.60;;;5.90;99.90;;;;;;5072004;28;20070;-83
2023/04/15 02:07:03;;;;;;;11.38;6.40;;;5.90;99.90;;;;;;5068759;28;20123;-83
2023/04/15 02:09:29;;;;;;;9.93;6.40;;;5.90;99.90;;;;;;5068428;28;20028;-83
2023/04/15 02:11:55;;;;;;;8.88;5.90;;;5.90;99.90;;;;;;5068324;28;20041;-82
2023/04/15 02:14:21;;;;;;;9.93;6.97;;;5.90;99.90;;;;;;5072022;28;20048;-83
2023/04/15 02:16:46;;;;;;;9.52;6.57;;;5.90;99.90;;;;;;5070521;28;20043;-83
2023/04/15 02:19:12;;;;;;;11.32;7.30;;;5.90;99.90;;;;;;5065558;28;20037;-82
2023/04/15 02:21:38;;;;;;;9.95;6.97;;;5.80;99.90;;;;;;5072981;28;20048;-82
2023/04/15 02:24:04;;;;;;;9.65;6.75;;;5.80;99.90;;;;;;5070204;28;20041;-83
2023/04/15 02:26:32;;;;;;;10.27;6.88;;;5.70;99.90;;;;;;5039945;28;20520;-82
2023/04/15 02:28:58;;;;;;;10.50;6.75;;;5.70;99.90;;;;;;5070235;28;20076;-82
2023/04/15 02:31:24;;;;;;;10.10;6.78;;;5.70;99.90;;;;;;5072937;28;20047;-83
2023/04/15 02:33:49;;;;;;;9.82;6.60;;;5.70;99.90;;;;;;5061673;28;20457;-82
2023/04/15 02:36:15;;;;;;;8.77;6.82;;;5.60;99.90;;;;;;5056800;28;20127;-82
2023/04/15 02:38:41;;;;;;;11.68;7.47;;;5.60;99.90;;;;;;5058972;28;20052;-83
2023/04/15 02:41:09;;;;;;;14.40;7.25;;;5.60;99.90;;;;;;5052542;28;20051;-82
2023/04/15 02:43:34;;;;;;;9.35;7.18;;;5.60;99.90;;;;;;5062335;28;20052;-82
2023/04/15 02:46:00;;;;;;;9.50;6.72;;;5.50;99.90;;;;;;5071777;28;20041;-81
2023/04/15 02:48:26;;;;;;;11.15;6.85;;;5.50;99.90;;;;;;5066151;28;20096;-82
2023/04/15 02:50:51;;;;;;;11.07;7.25;;;5.50;99.90;;;;;;5064748;28;20052;-83
2023/04/15 02:53:18;;;;;;;9.48;6.95;;;5.40;99.90;;;;;;5071266;28;20040;-83
2023/04/15 02:55:44;;;;;;;8.93;6.50;;;5.40;99.90;;;;;;5064930;28;20044;-82
2023/04/15 02:58:09;;;;;;;9.95;6.65;;;5.30;99.90;;;;;;5076869;28;20579;-83
2023/04/15 03:00:35;;;;;;;8.93;6.03;;;5.30;99.90;;;;;;5070078;28;20040;-83
2023/04/15 03:03:05;;;;;;;9.85;6.57;;;5.20;99.90;;;;;;5070034;28;20450;-82
2023/04/15 03:05:30;;;;;;;11.48;7.05;;;5.20;99.90;;;;;;5072179;28;20036;-82
2023/04/15 03:07:56;;;;;;;10.73;6.43;;;5.10;99.90;;;;;;5072882;28;20044;-82
2023/04/15 03:10:21;;;;;;;10.43;6.63;;;5.10;99.90;;;;;;5075648;28;20116;-83
2023/04/15 03:12:47;;;;;;;10.43;6.97;;;5.10;99.90;;;;;;5070812;28;20045;-82
2023/04/15 03:15:13;;;;;;;9.93;7.50;;;5.10;99.90;;;;;;5069991;28;20036;-82
2023/04/15 03:17:38;;;;;;;10.95;7.45;;;5.10;99.90;;;;;;5073076;28;20610;-82
2023/04/15 03:20:05;;;;;;;11.43;6.93;;;5.00;99.90;;;;;;5071210;28;20129;-83
2023/04/15 03:22:31;;;;;;;11.70;7.53;;;5.00;99.90;;;;;;5067945;28;20040;-83
2023/04/15 03:24:57;;;;;;;13.55;7.88;;;4.90;99.90;;;;;;5070198;28;20045;-83
2023/04/15 03:27:23;;;;;;;11.30;7.40;;;4.80;99.90;;;;;;5071672;28;20127;-82
2023/04/15 03:29:49;;;;;;;11.75;8.25;;;4.80;99.90;;;;;;5070113;28;20064;-82
2023/04/15 03:32:14;;;;;;;12.02;8.55;;;4.80;99.90;;;;;;5073522;28;20044;-82
2023/04/15 03:34:43;;;;;;;15.50;8.85;;;4.80;99.90;;;;;;5069733;28;20051;-82
2023/04/15 03:37:08;;;;;;;12.50;8.27;;;4.80;99.90;;;;;;5068859;28;20531;-82
2023/04/15 03:39:34;;;;;;;11.65;8.25;;;4.70;99.90;;;;;;5067729;28;20040;-82
2023/04/15 03:42:00;;;;;;;11.88;8.45;;;4.70;99.90;;;;;;5071194;28;20048;-82
2023/04/15 03:44:26;;;;;;;11.70;8.13;;;4.70;99.90;;;;;;5069557;28;20097;-82
2023/04/15 03:46:52;;;;;;;12.90;8.00;;;4.70;99.90;;;;;;5074576;28;20044;-82
2023/04/15 03:49:18;;;;;;;13.90;7.93;;;4.60;99.90;;;;;;5074999;28;20570;-82
2023/04/15 03:51:44;;;;;;;11.88;7.75;;;4.60;99.90;;;;;;5068677;28;20492;-83
2023/04/15 03:54:10;;;;;;;10.88;7.18;;;4.50;99.90;;;;;;5072518;28;20047;-82
2023/04/15 03:56:36;;;;;;;12.23;7.82;;;4.50;99.90;;;;;;5068572;28;20044;-83
2023/04/15 03:59:03;;;;;;;12.43;8.60;;;4.40;99.90;;;;;;5072255;28;20423;-82
2023/04/15 04:01:29;;;;;;;12.02;8.27;;;4.40;99.90;;;;;;5073692;28;20091;-82
2023/04/15 04:03:54;;;;;;;13.57;8.20;;;4.40;99.90;;;;;;5069977;28;20055;-83
2023/04/15 04:06:20;;;;;;;12.23;8.15;;;4.50;99.90;;;;;;5058725;28;20044;-82
2023/04/15 04:08:45;;;;;;;11.18;8.02;;;4.70;99.90;;;;;;5069501;28;20419;-82
2023/04/15 04:11:11;;;;;;;11.75;8.48;;;4.20;99.90;;;;;;5067841;28;20496;-82
2023/04/15 04:13:37;;;;;;;12.02;7.75;;;4.30;99.90;;;;;;5067399;28;20475;-82
2023/04/15 04:16:05;;;;;;;10.27;7.63;;;4.50;99.90;;;;;;5068142;28;20037;-83
2023/04/15 04:18:31;;;;;;;11.40;7.45;;;4.10;99.90;;;;;;5067575;28;20526;-82
2023/04/15 04:20:57;;;;;;;11.73;7.82;;;4.00;99.90;;;;;;5070880;28;20032;-82
2023/04/15 04:23:22;;;;;;;12.23;8.10;;;4.00;99.90;;;;;;5052125;28;20100;-83
2023/04/15 04:25:48;;;;;;;12.65;8.18;;;4.40;99.90;;;;;;5062307;28;20048;-82
2023/04/15 04:28:13;;;;;;;10.35;6.72;;;4.00;99.90;;;;;;5064075;28;20053;-82
2023/04/15 04:30:39;;;;;;;9.65;7.55;;;4.30;99.90;;;;;;5069309;28;20051;-82
2023/04/15 04:33:06;;;;;;;11.30;7.38;;;4.00;99.90;;;;;;5070244;28;20111;-82
2023/04/15 04:35:33;;;;;;;10.82;7.63;;;4.30;99.90;;;;;;5073605;28;20094;-82
2023/04/15 04:37:59;;;;;;;12.23;7.53;;;3.90;99.90;;;;;;5069281;28;20438;-85
2023/04/15 04:40:26;;;;;;;11.93;7.85;;;4.30;99.90;;;;;;5067198;28;20059;-84
2023/04/15 04:42:52;;;;;;;12.90;8.55;;;3.80;99.90;;;;;;5066796;28;20056;-82
2023/04/15 04:45:18;;;;;;;13.60;8.48;;;4.00;99.90;;;;;;5065821;28;20457;-82
2023/04/15 04:47:43;;;;;;;11.68;8.27;;;3.60;99.90;;;;;;5056762;28;20131;-83
2023/04/15 04:50:09;;;;;;;11.98;8.43;;;3.60;99.90;;;;;;5070157;28;20044;-83
2023/04/15 04:52:35;;;;;;;12.82;8.20;;;3.60;99.90;;;;;;5045716;28;20039;-83
2023/04/15 04:55:01;;;;;;;11.75;8.27;;;3.90;99.90;;;;;;5059627;28;20047;-84
2023/04/15 04:57:26;;;;;;;11.93;8.50;;;4.10;99.90;;;;;;5055866;28;20412;-85
2023/04/15 04:59:52;;;;;;;13.02;8.48;;;3.60;99.90;;;;;;5052417;28;20123;-82
2023/04/15 05:02:17;;;;;;;12.57;8.75;;;3.60;99.90;;;;;;5055176;28;20044;-83
2023/04/15 05:04:43;;;;;;;15.48;9.93;;;3.60;99.90;;;;;;5039434;28;20037;-83
2023/04/15 05:07:09;;;;;;;15.55;9.98;;;3.90;99.90;;;;;;5060429;28;20064;-87
2023/04/15 05:09:35;;;;;;;15.98;9.00;;;3.70;99.90;;;;;;5062993;28;20067;-82
2023/04/15 05:12:01;;;;;;;15.50;10.50;;;3.60;99.90;;;;;;5053766;28;20115;-82
2023/04/15 05:14:27;;;;;;;13.00;8.85;;;3.60;99.90;;;;;;5044492;28;20557;-81
2023/04/15 05:16:52;;;;;;;15.73;10.38;;;4.10;99.90;;;;;;5058921;28;20115;-82
2023/04/15 05:19:18;;;;;;;14.05;9.60;;;4.00;99.90;;;;;;5042926;28;20179;-83
2023/04/15 05:21:43;;;;;;;18.40;10.25;;;3.70;99.90;;;;;;5054160;28;20072;-82
2023/04/15 05:24:09;;;;;;;16.85;10.50;;;3.70;99.90;;;;;;5046509;28;20155;-84
2023/04/15 05:26:34;;;;;;;15.55;9.93;;;3.70;99.90;;;;;;5042702;28;20567;-81
2023/04/15 05:29:00;;;;;;;15.27;10.43;;;4.20;99.90;;;;;;5068067;28;20044;-82
2023/04/15 05:31:25;;;;;;;16.20;10.00;;;3.80;99.90;;;;;;5039415;28;20051;-82
2023/04/15 05:33:51;;;;;;;15.00;10.55;;;4.40;99.90;;;;;;5072331;28;20071;-81
2023/04/15 05:36:17;;;;;;;15.48;10.27;;;4.40;99.90;;;;;;5050361;28;20044;-82
2023/04/15 05:38:42;;;;;;;15.88;10.52;;;3.90;99.90;;;;;;5060489;28;20181;-83
2023/04/15 05:41:08;;;;;;;14.68;10.02;;;4.00;99.90;;;;;;5051564;28;20477;-81
2023/04/15 05:43:33;;;;;;;17.90;11.07;;;4.50;99.90;;;;;;5053037;28;20048;-81
2023/04/15 05:45:59;;;;;;;16.48;10.65;;;4.20;99.90;;;;;;5063376;28;20037;-81
2023/04/15 05:48:27;;;;;;;15.70;10.65;;;4.50;99.90;;;;;;5046916;28;20507;-81
2023/04/15 05:50:53;;;;;;;16.23;10.50;;;4.40;99.90;;;;;;5049440;28;20083;-80
2023/04/15 05:53:19;;;;;;;17.83;11.10;;;4.50;99.90;;;;;;5066400;28;20036;-81
2023/04/15 05:55:45;;;;;;;16.88;10.63;;;4.50;99.90;;;;;;5070811;28;20051;-82
2023/04/15 05:58:11;;;;;;;17.90;11.70;;;4.60;99.90;;;;;;5054110;28;20458;-84
2023/04/15 06:00:37;;;;;;;18.35;11.80;;;4.70;99.90;;;;;;5063847;28;20052;-81
2023/04/15 06:03:03;;;;;;;16.95;11.25;;;4.80;99.90;;;;;;5051078;28;20496;-82
2023/04/15 06:05:28;;;;;;;17.60;11.73;;;4.90;99.90;;;;;;5049567;28;20136;-83
2023/04/15 06:07:54;;;;;;;19.33;12.27;;;5.00;99.90;;;;;;5054451;28;20050;-80
2023/04/15 06:10:19;;;;;;;18.23;10.98;;;5.20;99.90;;;;;;5071234;28;20126;-81
2023/04/15 06:12:45;;;;;;;17.73;11.52;;;5.20;99.90;;;;;;5068801;28;20495;-81
2023/04/15 06:15:11;;;;;;;18.52;11.70;;;5.40;99.90;;;;;;5051234;28;20515;-82
2023/04/15 06:17:36;;;;;;;18.08;12.13;;;5.40;99.90;;;;;;5052447;28;20032;-81
2023/04/15 06:20:03;;;;;;;15.23;10.27;;;5.50;99.90;;;;;;5067371;28;20566;-80
2023/04/15 06:22:28;;;;;;;18.95;12.30;;;5.60;99.90;;;;;;5047474;28;20462;-81
2023/04/15 06:24:54;;;;;;;16.17;11.02;;;5.80;99.90;;;;;;5051392;28;20310;-80
2023/04/15 06:27:20;;;;;;;16.90;10.90;;;5.90;99.90;;;;;;5045601;28;20055;-80
2023/04/15 06:29:45;;;;;;;19.65;11.35;;;6.10;99.90;;;;;;5063348;28;20043;-80
2023/04/15 06:32:12;;;;;;;15.93;11.20;;;6.20;99.90;;;;;;5057933;28;20404;-82
2023/04/15 06:34:37;;;;;;;15.93;10.25;;;6.40;99.90;;;;;;5055283;28;20044;-81
2023/04/15 06:37:03;;;;;;;18.55;11.02;;;6.60;99.90;;;;;;5053961;28;20041;-84
2023/04/15 06:39:28;;;;;;;17.80;11.02;;;6.70;99.90;;;;;;5058546;28;20079;-81
2023/04/15 06:41:55;;;;;;;13.93;10.00;;;6.90;99.90;;;;;;5053584;28;20044;-81
2023/04/15 06:44:21;;;;;;;17.80;10.77;;;7.00;99.90;;;;;;5050482;28;20044;-80
2023/04/15 06:46:46;;;;;;;14.73;9.68;;;7.20;99.90;;;;;;5045881;28;20045;-81
2023/04/15 06:49:12;;;;;;;16.00;10.02;;;7.30;99.90;;;;;;5046780;28;20041;-81
2023/04/15 06:51:37;;;;;;;15.60;10.60;;;7.50;99.90;;;;;;5042675;28;20062;-81
2023/04/15 06:54:05;;;;;;;14.20;9.52;;;7.60;99.90;;;;;;5056872;28;20055;-81
2023/04/15 06:56:33;;;;;;;16.52;10.68;;;7.70;99.90;;;;;;5072528;28;20217;-80
2023/04/15 06:58:59;;;;;;;16.83;10.80;;;7.80;99.90;;;;;;5042189;28;20123;-80
2023/04/15 07:01:25;;;;;;;14.15;9.13;;;7.80;99.90;;;;;;5057744;28;20579;-81
2023/04/15 07:03:51;;;;;;;16.52;9.68;;;7.80;99.90;;;;;;5047152;28;20508;-84
2023/04/15 07:06:17;;;;;;;16.98;10.27;;;7.90;99.90;;;;;;5051544;28;20071;-81
2023/04/15 07:08:42;;;;;;;15.25;10.13;;;7.90;99.90;;;;;;5058435;28;20036;-81
2023/04/15 07:11:08;;;;;;;13.32;9.45;;;7.90;99.90;;;;;;5058848;28;20036;-82
2023/04/15 07:13:33;;;;;;;16.50;9.48;;;7.90;99.90;;;;;;5054654;28;20500;-81
2023/04/15 07:15:59;;;;;;;15.45;9.70;;;7.90;99.90;;;;;;5050960;28;20041;-80
2023/04/15 07:18:24;;;;;;;15.38;9.95;;;8.00;99.90;;;;;;5064805;28;20132;-82
2023/04/15 07:20:50;;;;;;;15.15;10.02;;;8.10;99.90;;;;;;5043635;28;20044;-82
2023/04/15 07:23:16;;;;;;;14.40;9.70;;;8.10;99.90;;;;;;5051715;28;20512;-82
2023/04/15 07:25:41;;;;;;;21.15;10.52;;;8.20;99.90;;;;;;5055347;28;20029;-83
2023/04/15 07:28:07;;;;;;;16.40;8.32;;;8.30;99.90;;;;;;5052795;28;20071;-81
2023/04/15 07:30:33;;;;;;;13.82;8.43;;;8.30;99.90;;;;;;5052974;28;20124;-82
2023/04/15 07:33:00;;;;;;;12.07;8.13;;;8.40;99.90;;;;;;5055106;28;20044;-81
2023/04/15 07:35:25;;;;;;;11.20;7.40;;;8.50;99.90;;;;;;5058139;28;20047;-82
2023/04/15 07:37:51;;;;;;;10.80;7.00;;;8.60;99.90;;;;;;5046518;28;20041;-81
2023/04/15 07:40:17;;;;;;;11.88;7.15;;;8.60;99.90;;;;;;5056689;28;20076;-81
2023/04/15 07:42:43;;;;;;;9.20;6.38;;;8.70;99.90;;;;;;5051941;28;20036;-81
2023/04/15 07:45:09;;;;;;;9.48;5.65;;;8.80;99.90;;;;;;5066613;28;20037;-84
2023/04/15 07:47:35;;;;;;;8.75;5.05;;;8.80;99.90;;;;;;5054644;28;20519;-81
2023/04/15 07:50:01;;;;;;;8.73;5.32;;;8.90;99.90;;;;;;5053588;28;20048;-82
2023/04/15 07:52:27;;;;;;;9.10;5.70;;;9.00;99.90;;;;;;5042634;28;20067;-81
2023/04/15 07:54:53;;;;;;;8.80;6.00;;;9.00;99.90;;;;;;5057923;28;20036;-83
2023/04/15 07:57:19;;;;;;;10.98;6.00;;;9.00;99.90;;;;;;5056313;28;20059;-82
2023/04/15 07:59:44;;;;;;;9.63;6.35;;;9.10;99.90;;;;;;5042837;28;20457;-83
2023/04/15 08:02:10;;;;;;;8.02;5.57;;;9.10;99.90;;;;;;5055199;28;20363;-83
2023/04/15 08:04:36;;;;;;;9.88;5.68;;;9.10;99.90;;;;;;5051823;28;20602;-82
2023/04/15 08:07:02;;;;;;;9.55;5.82;;;9.10;99.90;;;;;;5039385;28;20057;-81
2023/04/15 08:09:28;;;;;;;10.50;6.18;;;9.10;99.90;;;;;;5048663;28;20039;-81
2023/04/15 08:11:54;;;;;;;9.23;6.25;;;9.10;99.90;;;;;;5054568;28;20041;-81
2023/04/15 08:14:19;;;;;;;9.80;6.63;;;9.20;99.90;;;;;;5072675;28;20045;-82
2023/04/15 08:16:45;;;;;;;11.52;6.93;;;9.10;99.90;;;;;;5046402;28;20048;-85
2023/04/15 08:19:10;;;;;;;9.20;6.30;;;9.10;99.90;;;;;;5070177;28;20381;-81
2023/04/15 08:21:36;;;;;;;7.97;5.30;;;9.10;99.90;;;;;;5074240;28;20500;-81
2023/04/15 08:24:02;;;;;;;7.75;5.30;;;9.10;99.90;;;;;;5052982;28;20056;-82
2023/04/15 08:26:27;;;;;;;8.27;5.07;;;9.20;99.90;;;;;;5073724;28;20645;-80
2023/04/15 08:28:53;;;;;;;9.13;5.40;;;9.20;99.90;;;;;;5068041;28;20028;-81
2023/04/15 08:31:19;;;;;;;7.38;5.00;;;9.30;99.90;;;;;;5072406;28;20055;-82
2023/04/15 08:33:45;;;;;;;8.07;4.82;;;9.40;99.90;;;;;;5072566;28;20043;-84
2023/04/15 08:36:12;;;;;;;7.78;4.40;;;9.40;99.90;;;;;;5057279;28;20523;-82
2023/04/15 08:38:38;;;;;;;7.00;4.32;;;9.30;99.90;;;;;;5053408;28;20044;-82
2023/04/15 08:41:10;;;;;;;9.55;4.20;;;9.30;99.90;;;;;;5067000;28;20051;-82
2023/04/15 08:43:45;;;;;;;7.78;3.83;;;9.20;99.90;;;;;;5049413;28;20048;-82
2023/04/15 08:46:12;;;;;;;6.93;3.55;;;9.20;99.90;;;;;;5052223;28;20071;-83
2023/04/15 08:48:39;;;;;;;8.00;3.67;;;9.20;99.90;;;;;;5056573;28;20042;-85
2023/04/15 08:51:06;;;;;;;7.22;3.80;;;9.20;99.90;;;;;;5054256;28;20067;-81
2023/04/15 08:53:32;;;;;;;4.78;3.08;;;9.10;99.90;;;;;;5049368;28;20132;-87
2023/04/15 08:56:03;;;;;;;7.40;3.58;;;9.20;99.90;;;;;;5056526;28;20450;-83
2023/04/15 08:58:29;;;;;;;6.72;2.97;;;9.30;99.90;;;;;;5045538;28;20408;-82
2023/04/15 09:00:56;;;;;;;3.95;2.90;;;9.40;99.90;;;;;;5052846;28;20040;-82
2023/04/15 09:03:22;;;;;;;6.53;3.10;;;9.40;99.90;;;;;;5044409;28;20032;-82
2023/04/15 09:05:49;;;;;;;5.63;2.80;;;9.40;99.90;;;;;;5070465;28;20080;-86
2023/04/15 09:08:15;;;;;;;3.35;2.53;;;9.30;99.90;;;;;;5064307;28;20052;-82
2023/04/15 09:10:40;;;;;;;6.75;2.92;;;9.20;99.90;;;;;;5046863;28;20036;-82
2023/04/15 09:13:06;;;;;;;5.63;2.83;;;9.10;99.90;;;;;;5048463;28;20119;-83
2023/04/15 09:15:32;;;;;;;4.72;2.50;;;9.00;99.90;;;;;;5048007;28;20041;-82
2023/04/15 09:17:58;;;;;;;11.07;3.03;;;9.00;99.90;;;;;;5065979;28;20051;-84
2023/04/15 09:20:23;;;;;;;4.80;2.80;;;8.90;99.90;;;;;;5054581;28;20123;-83
2023/04/15 09:22:50;;;;;;;6.47;3.40;;;8.90;99.90;;;;;;5042352;28;20048;-82
2023/04/15 09:25:23;;;;;;;6.25;3.00;;;8.80;99.90;;;;;;5053224;28;20051;-83
2023/04/15 09:27:54;;;;;;;7.90;3.30;;;8.90;99.90;;;;;;5041539;28;20041;-82
2023/04/15 09:30:20;;;;;;;4.88;2.80;;;9.00;99.90;;;;;;5053171;28;20048;-82
2023/04/15 09:32:53;;;;;;;6.43;3.30;;;9.10;99.90;;;;;;5037691;28;20037;-82
2023/04/15 09:35:20;;;;;;;5.20;2.70;;;9.00;99.90;;;;;;5062371;28;20059;-85
2023/04/15 09:37:46;;;;;;;3.67;2.20;;;9.00;99.90;;;;;;5040485;28;20084;-82
2023/04/15 09:40:12;;;;;;;5.72;2.67;;;9.00;99.90;;;;;;5051466;28;20158;-83
2023/04/15 09:42:54;;;;;;;12.65;3.78;;;8.90;99.90;;;;;;5046566;28;20115;-82
2023/04/15 09:45:21;;;;;;;5.22;2.42;;;8.80;99.90;;;;;;5055246;28;20094;-86
2023/04/15 09:47:47;;;;;;;4.95;2.25;;;8.80;99.90;;;;;;5073292;28;20091;-84
2023/04/15 09:50:14;;;;;;;4.55;2.63;;;8.80;99.90;;;;;;5039135;28;20516;-83
2023/04/15 09:52:44;;;;;;;5.30;2.17;;;8.80;99.90;;;;;;5071575;28;20045;-83
2023/04/15 09:55:11;;;;;;;7.20;2.22;;;9.00;99.90;;;;;;5063896;28;20516;-82
2023/04/15 09:57:37;;;;;;;5.70;2.03;;;9.10;99.90;;;;;;5046517;28;20036;-84
2023/04/15 10:00:05;;;;;;;5.15;2.17;;;9.20;99.90;;;;;;5072271;28;20036;-83
2023/04/15 10:02:31;;;;;;;3.70;1.98;;;9.40;99.90;;;;;;5067928;28;20079;-84
2023/04/15 10:04:57;;;;;;;6.60;2.22;;;9.40;99.90;;;;;;5067087;28;20578;-80
2023/04/15 10:07:23;;;;;;;3.63;1.65;;;9.50;99.90;;;;;;5045501;28;20507;-84
2023/04/15 10:09:48;;;;;;;2.47;1.48;;;9.50;99.90;;;;;;5030687;28;20052;-82
2023/04/15 10:12:18;;;;;;;2.13;1.45;;;9.50;99.90;;;;;;5043772;28;20396;-83
2023/04/15 10:14:54;;;;;;;3.08;1.60;;;9.50;99.90;;;;;;5055855;28;20110;-82
2023/04/15 10:17:22;;;;;;;4.40;1.70;;;9.60;99.90;;;;;;5048988;28;20052;-83
2023/04/15 10:19:49;;;;;;;3.33;1.52;;;9.70;99.90;;;;;;5058795;28;20055;-84
2023/04/15 10:22:16;;;;;;;2.80;1.63;;;9.80;99.90;;;;;;5048368;28;20404;-82
2023/04/15 10:24:44;;;;;;;3.58;1.27;;;9.80;99.90;;;;;;5061353;28;20041;-83
2023/04/15 10:27:10;;;;;;;2.55;1.65;;;9.80;99.90;;;;;;5043120;28;20055;-83
2023/04/15 10:29:36;;;;;;;3.97;2.00;;;9.80;99.90;;;;;;5043207;28;20033;-82
2023/04/15 10:32:02;;;;;;;5.95;2.25;;;9.80;99.90;;;;;;5051053;28;20404;-82
2023/04/15 10:34:30;;;;;;;3.45;2.13;;;9.60;99.90;;;;;;5043385;28;20037;-83
2023/04/15 10:36:57;;;;;;;3.42;1.63;;;9.50;99.90;;;;;;5062250;28;20087;-84
2023/04/15 10:39:45;;;;;;;4.80;2.03;;;9.50;99.90;;;;;;5054923;28;20040;-82
2023/04/15 10:42:12;;;;;;;5.70;2.13;;;9.50;99.90;;;;;;5044165;28;20052;-82
2023/04/15 10:44:40;;;;;;;7.28;2.53;;;9.40;99.90;;;;;;5040925;28;20508;-82
2023/04/15 10:47:18;;;;;;;3.47;2.08;;;9.50;99.90;;;;;;5054243;28;20041;-84
2023/04/15 10:50:05;;;;;;;7.05;2.20;;;9.50;99.90;;;;;;5054905;28;20045;-82
2023/04/15 10:52:31;;;;;;;3.78;2.03;;;9.50;99.90;;;;;;5054178;28;20048;-82
2023/04/15 10:55:06;;;;;;;9.55;2.53;;;9.50;99.90;;;;;;5064920;28;20044;-83
2023/04/15 10:57:38;;;;;;;5.20;1.98;;;9.50;99.90;;;;;;5051223;28;20040;-83
2023/04/15 11:00:13;;;;;;;4.70;2.17;;;9.50;99.90;;;;;;5056387;28;20040;-85
2023/04/15 11:02:55;;;;;;;4.72;2.00;;;9.60;99.90;;;;;;5050388;28;20040;-82
2023/04/15 11:05:41;;;;;;;5.28;2.55;;;9.60;99.90;;;;;;5068564;28;20040;-81
2023/04/15 11:08:09;;;;;;;4.75;2.50;;;9.50;99.90;;;;;;5054004;28;20044;-82
2023/04/15 11:10:37;;;;;;;5.20;2.75;;;9.30;99.90;;;;;;5061828;28;20032;-83
2023/04/15 11:13:13;;;;;;;6.47;2.80;;;9.40;99.90;;;;;;5049768;28;20040;-82
2023/04/15 11:15:46;;;;;;;5.88;2.80;;;9.40;99.90;;;;;;5060830;28;20120;-82
2023/04/15 11:18:15;;;;;;;3.58;2.10;;;9.50;99.90;;;;;;5062727;28;20052;-82
2023/04/15 11:20:47;;;;;;;3.30;1.90;;;9.50;99.90;;;;;;5048566;28;20043;-84
2023/04/15 11:23:14;;;;;;;7.97;2.33;;;9.50;99.90;;;;;;5049757;28;20120;-84
2023/04/15 11:25:41;;;;;;;3.83;1.60;;;9.50;99.90;;;;;;5037016;28;20419;-83
2023/04/15 11:28:07;;;;;;;6.88;1.70;;;9.60;99.90;;;;;;5045070;28;20037;-82
2023/04/15 11:30:35;;;;;;;7.22;2.00;;;9.80;99.90;;;;;;5037662;28;20434;-82
2023/04/15 11:33:03;;;;;;;4.70;1.40;;;9.90;99.90;;;;;;5062572;28;20052;-83
2023/04/15 11:35:29;;;;;;;5.32;2.05;;;10.00;99.90;;;;;;5040139;28;20048;-84
2023/04/15 11:37:55;;;;;;;4.18;1.70;;;10.20;99.90;;;;;;5051232;28;20052;-83
2023/04/15 11:40:25;;;;;;;7.95;2.03;;;10.20;99.90;;;;;;5047136;28;20032;-82
2023/04/15 11:43:07;;;;;;;7.45;2.33;;;10.10;99.90;;;;;;5053297;28;20040;-85
2023/04/15 11:45:33;;;;;;;5.65;1.65;;;10.00;99.90;;;;;;5050468;28;20068;-83
2023/04/15 11:48:10;;;;;;;7.75;1.92;;;10.00;99.90;;;;;;5058473;28;20037;-84
2023/04/15 11:50:39;;;;;;;7.07;2.10;;;10.10;99.90;;;;;;5048709;28;20036;-84
2023/04/15 11:53:13;;;;;;;6.03;2.03;;;10.20;99.90;;;;;;5037376;28;20084;-84
2023/04/15 11:55:43;;;;;;;8.18;2.00;;;10.30;99.90;;;;;;5047196;28;20041;-82
2023/04/15 11:58:23;;;;;;;5.63;1.90;;;10.20;99.90;;;;;;5056674;28;20052;-83
2023/04/15 12:00:59;;;;;;;5.70;1.80;;;10.10;99.90;;;;;;5044988;28;20519;-85
2023/04/15 12:03:29;;;;;;;5.70;1.83;;;10.00;99.90;;;;;;5064440;28;20039;-84
2023/04/15 12:06:21;;;;;;;5.05;1.63;;;9.90;99.90;;;;;;5053024;28;20384;-84
2023/04/15 12:09:05;;;;;;;8.68;2.42;;;9.70;99.90;;;;;;5043690;28;20120;-83
2023/04/15 12:11:34;;;;;;;5.05;1.83;;;9.60;99.90;;;;;;5063228;28;20512;-84
2023/04/15 12:14:07;;;;;;;5.65;1.73;;;9.60;99.90;;;;;;5052057;28;20123;-83
2023/04/15 12:17:00;;;;;;;10.48;2.10;;;9.60;99.90;;;;;;5073386;28;20111;-84
2023/04/15 12:19:27;;;;;;;9.85;1.80;;;9.60;99.90;;;;;;5071553;28;20059;-83
2023/04/15 12:21:58;;;;;;;7.55;2.20;;;9.70;99.90;;;;;;5073179;28;20563;-84
2023/04/15 12:24:25;;;;;;;5.10;2.17;;;9.70;99.90;;;;;;5072852;28;20064;-82
2023/04/15 12:26:58;;;;;;;5.70;1.90;;;9.70;99.90;;;;;;5056471;28;20547;-84
2023/04/15 12:29:27;;;;;;;10.93;2.10;;;9.70;99.90;;;;;;5056204;28;20091;-85
2023/04/15 12:31:54;;;;;;;8.55;1.98;;;9.80;99.90;;;;;;5053749;28;20504;-83
2023/04/15 12:34:31;;;;;;;8.40;2.10;;;9.80;99.90;;;;;;5064782;28;20496;-82
2023/04/15 12:37:00;;;;;;;7.43;2.35;;;9.80;99.90;;;;;;5056123;28;20041;-82
2023/04/15 12:39:30;;;;;;;10.88;1.80;;;9.80;99.90;;;;;;5069390;28;20495;-84
2023/04/15 12:41:55;;;;;;;6.13;1.92;;;9.70;99.90;;;;;;5050494;28;20037;-81
2023/04/15 12:44:22;;;;;;;6.28;1.60;;;9.60;99.90;;;;;;5054111;28;20037;-84
2023/04/15 12:46:49;;;;;;;11.35;1.95;;;9.80;99.90;;;;;;5044748;28;20045;-83
2023/04/15 12:49:15;;;;;;;7.47;1.60;;;9.80;99.90;;;;;;5046582;28;20047;-83